Time;durP1;ratioP1;P1;durP2;ratioP2;P2;SDS_P1;SDS_P2;PMS_P1;PMS_P2;Temp;Humidity;BMP_temperature;BMP_pressure;BME280_temperature;BME280_humidity;BME280_pressure;Samples;Min_cycle;Max_cycle;Signal;HPM_P1;HPM_P2
2023/01/12 00:02:05;;;;;;;;;;;10.00;99.90;;;;;;5039505;28;19909;-74
2023/01/12 00:04:31;;;;;;;;;;;10.00;99.90;;;;;;5040669;28;19928;-75
2023/01/12 00:06:57;;;;;;;;;;;10.00;99.90;;;;;;5034675;28;19909;-73
2023/01/12 00:09:22;;;;;;;;;;;10.10;99.90;;;;;;5044987;28;19912;-72
2023/01/12 00:11:48;;;;;;;;;;;10.20;99.90;;;;;;5038045;28;19928;-72
2023/01/12 00:14:13;;;;;;;;;;;10.20;99.90;;;;;;5038707;28;19917;-73
2023/01/12 00:16:42;;;;;;;;;;;10.20;99.90;;;;;;5043119;28;19919;-73
2023/01/12 00:19:11;;;;;;;;;;;10.30;99.90;;;;;;5040759;28;19909;-76
2023/01/12 00:21:45;;;;;;;;;;;10.30;99.90;;;;;;5037913;28;19988;-73
2023/01/12 00:24:11;;;;;;;;;;;10.30;99.90;;;;;;5043427;28;20547;-73
2023/01/12 00:26:36;;;;;;;;;;;10.40;99.90;;;;;;5044057;28;19913;-75
2023/01/12 00:29:02;;;;;;;;;;;10.40;99.90;;;;;;5032291;28;20036;-75
2023/01/12 00:31:27;;;;;;;;;;;10.40;99.90;;;;;;5045603;28;20383;-74
2023/01/12 00:33:53;;;;;;;;;;;10.50;99.90;;;;;;5029677;28;20444;-74
2023/01/12 00:36:18;;;;;;;;;;;10.50;99.90;;;;;;5039699;28;20433;-73
2023/01/12 00:38:44;;;;;;;;;;;10.60;99.90;;;;;;5044496;28;20188;-75
2023/01/12 00:46:41;;;;;;;;;;;10.70;99.90;;;;;;5044047;28;19996;-72
2023/01/12 00:49:06;;;;;;;;;;;10.80;99.90;;;;;;5045392;28;19925;-74
2023/01/12 00:51:31;;;;;;;;;;;10.90;99.90;;;;;;5036798;28;19920;-74
2023/01/12 00:53:57;;;;;;;;;;;11.00;99.90;;;;;;5049008;28;19934;-73
2023/01/12 00:56:22;;;;;;;;;;;11.00;99.90;;;;;;5041192;28;19921;-73
2023/01/12 00:58:48;;;;;;;;;;;11.00;99.90;;;;;;5039475;28;19927;-74
2023/01/12 01:01:13;;;;;;;;;;;11.10;99.90;;;;;;5042690;28;19931;-77
2023/01/12 01:03:39;;;;;;;;;;;11.20;99.90;;;;;;5035783;28;19916;-74
2023/01/12 01:06:05;;;;;;;;;;;11.20;99.90;;;;;;5047122;28;19916;-74
2023/01/12 01:08:31;;;;;;;;;;;11.30;99.90;;;;;;5042170;28;20024;-73
2023/01/12 01:11:01;;;;;;;;;;;11.40;99.90;;;;;;5036464;28;19999;-72
2023/01/12 01:13:26;;;;;;;;;;;11.50;99.90;;;;;;5036005;28;19945;-72
2023/01/12 01:15:52;;;;;;;;;;;11.60;99.90;;;;;;5034424;28;20390;-74
2023/01/12 01:18:17;;;;;;;;;;;11.70;99.90;;;;;;5041566;28;19928;-76
2023/01/12 01:20:45;;;;;;;;;;;11.70;99.90;;;;;;5037710;28;19917;-75
2023/01/12 01:23:10;;;;;;;;;;;11.80;99.90;;;;;;5043055;28;19909;-73
2023/01/12 01:25:36;;;;;;;;;;;12.00;99.90;;;;;;5045537;28;19974;-73
2023/01/12 01:28:01;;;;;;;;;;;12.00;99.90;;;;;;5044707;28;19909;-74
2023/01/12 01:30:27;;;;;;;;;;;12.10;99.90;;;;;;5045697;28;19915;-74
2023/01/12 01:32:52;;;;;;;;;;;12.20;99.90;;;;;;5036876;28;19917;-74
2023/01/12 01:35:18;;;;;;;;;;;12.20;99.90;;;;;;5042093;28;19917;-74
2023/01/12 01:37:43;;;;;;;;;;;12.30;99.90;;;;;;5036597;28;19970;-71
2023/01/12 01:40:09;;;;;;;;;;;12.30;99.90;;;;;;5036013;28;19910;-73
2023/01/12 01:42:34;;;;;;;;;;;12.40;99.90;;;;;;5044631;28;19913;-74
2023/01/12 01:45:01;;;;;;;;;;;12.50;99.90;;;;;;5046262;28;19909;-73
2023/01/12 01:47:38;;;;;;;;;;;12.50;99.90;;;;;;5034876;28;19913;-73
2023/01/12 01:50:06;;;;;;;;;;;12.50;99.90;;;;;;5046104;28;19952;-72
2023/01/12 01:52:33;;;;;;;;;;;12.30;99.90;;;;;;5035217;28;20551;-70
2023/01/12 01:55:05;;;;;;;;;;;12.20;99.90;;;;;;5047520;28;19916;-72
2023/01/12 01:57:35;;;;;;;;;;;12.30;99.90;;;;;;5038294;28;19949;-74
2023/01/12 02:00:02;;;;;;;;;;;12.30;99.90;;;;;;5043652;28;19981;-74
2023/01/12 02:02:28;;;;;;;;;;;12.40;99.90;;;;;;5038398;28;19945;-74
2023/01/12 02:04:54;;;;;;;;;;;12.40;99.90;;;;;;5042513;28;19917;-73
2023/01/12 02:07:20;;;;;;;;;;;12.40;99.90;;;;;;5036458;28;20478;-78
2023/01/12 02:09:45;;;;;;;;;;;12.60;99.90;;;;;;5039078;28;19920;-71
2023/01/12 02:17:50;;;;;;;;;;;12.60;99.90;;;;;;5044983;28;19974;-73
2023/01/12 02:20:39;;;;;;;;;;;12.60;99.90;;;;;;5033019;28;19944;-76
2023/01/12 02:23:22;;;;;;;;;;;12.70;99.90;;;;;;5027294;28;19909;-72
2023/01/12 02:25:48;;;;;;;;;;;12.60;99.90;;;;;;5038976;28;20011;-71
2023/01/12 02:28:19;;;;;;;;;;;12.60;99.90;;;;;;5032500;28;20003;-74
2023/01/12 02:31:08;;;;;;;;;;;12.50;99.90;;;;;;5041569;28;19967;-77
2023/01/12 02:33:33;;;;;;;;;;;12.50;99.90;;;;;;5032787;28;19909;-73
2023/01/12 02:36:03;;;;;;;;;;;12.50;99.90;;;;;;5043295;28;19967;-77
2023/01/12 02:38:50;;;;;;;;;;;12.50;99.90;;;;;;5036576;28;19913;-74
2023/01/12 02:44:15;;;;;;;;;;;12.60;99.90;;;;;;5037580;28;19920;-72
2023/01/12 02:46:42;;;;;;;;;;;12.60;99.90;;;;;;5040225;28;19910;-72
2023/01/12 02:49:11;;;;;;;;;;;12.60;99.90;;;;;;5041947;28;19909;-72
2023/01/12 02:51:55;;;;;;;;;;;12.60;99.90;;;;;;5045869;28;19913;-74
2023/01/12 02:54:22;;;;;;;;;;;12.70;99.90;;;;;;5042596;28;20067;-74
2023/01/12 02:56:49;;;;;;;;;;;12.60;99.90;;;;;;5052442;28;19913;-78
2023/01/12 02:59:16;;;;;;;;;;;12.70;99.90;;;;;;5042440;28;20625;-75
2023/01/12 03:01:43;;;;;;;;;;;12.70;99.90;;;;;;5044329;28;19928;-73
2023/01/12 03:04:09;;;;;;;;;;;12.70;99.90;;;;;;5046344;28;19952;-73
2023/01/12 03:06:50;;;;;;;;;;;12.80;99.90;;;;;;5043651;28;19968;-73
2023/01/12 03:09:16;;;;;;;;;;;12.90;99.90;;;;;;5040843;28;20371;-72
2023/01/12 03:11:42;;;;;;;;;;;12.90;99.90;;;;;;5040901;28;19920;-71
2023/01/12 03:14:10;;;;;;;;;;;13.00;99.90;;;;;;5036759;28;19909;-71
2023/01/12 03:16:37;;;;;;;;;;;13.10;99.90;;;;;;5033132;28;20239;-74
2023/01/12 03:19:23;;;;;;;;;;;13.10;99.90;;;;;;5035114;28;20011;-74
2023/01/12 03:21:56;;;;;;;;;;;13.20;99.90;;;;;;5033191;28;20728;-75
2023/01/12 03:24:25;;;;;;;;;;;13.20;99.90;;;;;;5039585;28;19956;-71
2023/01/12 03:26:54;;;;;;;;;;;13.20;99.90;;;;;;5037349;28;19909;-74
2023/01/12 03:29:24;;;;;;;;;;;13.20;99.90;;;;;;5035965;28;19921;-74
2023/01/12 03:31:49;;;;;;;;;;;13.30;99.90;;;;;;5043810;28;20008;-73
2023/01/12 03:34:15;;;;;;;;;;;13.30;99.90;;;;;;5037680;28;20003;-71
2023/01/12 03:36:59;;;;;;;;;;;13.30;99.90;;;;;;5044013;28;19948;-72
2023/01/12 03:39:31;;;;;;;;;;;13.30;99.90;;;;;;5037420;28;20302;-71
2023/01/12 03:42:00;;;;;;;;;;;13.30;99.90;;;;;;5034213;28;19916;-71
2023/01/12 03:44:33;;;;;;;;;;;13.40;99.90;;;;;;5039814;28;19913;-70
2023/01/12 03:47:01;;;;;;;;;;;13.30;99.90;;;;;;5039141;28;19913;-71
2023/01/12 03:49:33;;;;;;;;;;;13.50;99.90;;;;;;5042609;28;19962;-68
2023/01/12 03:51:59;;;;;;;;;;;13.40;99.90;;;;;;5035238;28;19908;-75
2023/01/12 03:54:26;;;;;;;;;;;13.30;99.90;;;;;;5042858;28;19927;-71
2023/01/12 03:56:53;;;;;;;;;;;13.50;99.90;;;;;;5040278;28;20287;-70
2023/01/12 03:59:20;;;;;;;;;;;13.50;99.90;;;;;;5039733;28;20002;-74
2023/01/12 04:01:47;;;;;;;;;;;13.40;99.90;;;;;;5034973;28;20402;-73
2023/01/12 04:04:13;;;;;;;;;;;13.40;99.90;;;;;;5029284;28;20608;-75
2023/01/12 04:06:38;;;;;;;;;;;13.40;99.90;;;;;;5028890;28;19913;-73
2023/01/12 04:09:04;;;;;;;;;;;13.40;99.90;;;;;;5033054;28;19990;-71
2023/01/12 04:14:14;;;;;;;;;;;13.40;99.90;;;;;;5042742;28;20436;-72
2023/01/12 04:16:39;;;;;;;;;;;13.40;99.90;;;;;;5033961;28;19913;-73
2023/01/12 04:19:04;;;;;;;;;;;13.60;99.90;;;;;;5030786;28;20756;-73
2023/01/12 04:24:14;;;;;;;;;;;13.60;99.90;;;;;;5037940;28;20498;-73
2023/01/12 04:26:39;;;;;;;;;;;13.50;99.90;;;;;;5036111;28;19909;-72
2023/01/12 04:29:05;;;;;;;;;;;13.60;99.90;;;;;;5028954;28;19913;-73
2023/01/12 04:31:30;;;;;;;;;;;13.60;99.90;;;;;;5037966;28;19908;-74
2023/01/12 04:33:56;;;;;;;;;;;13.60;99.90;;;;;;5031717;28;19915;-73
2023/01/12 04:36:21;;;;;;;;;;;13.60;99.90;;;;;;5030515;28;19917;-74
2023/01/12 04:38:47;;;;;;;;;;;13.60;99.90;;;;;;5034585;28;19916;-73
2023/01/12 04:41:12;;;;;;;;;;;13.50;99.90;;;;;;5042433;28;19924;-69
2023/01/12 04:43:38;;;;;;;;;;;13.50;99.90;;;;;;5039895;28;20337;-70
2023/01/12 04:46:08;;;;;;;;;;;13.60;99.90;;;;;;5041369;28;20371;-73
2023/01/12 04:48:34;;;;;;;;;;;13.50;99.90;;;;;;5043736;28;19955;-74
2023/01/12 04:51:00;;;;;;;;;;;13.60;99.90;;;;;;5036858;28;19913;-71
2023/01/12 04:53:25;;;;;;;;;;;13.60;99.90;;;;;;5040974;28;19989;-72
2023/01/12 04:55:51;;;;;;;;;;;13.60;99.90;;;;;;5039953;28;19964;-71
2023/01/12 04:58:16;;;;;;;;;;;13.50;99.90;;;;;;5034438;28;19925;-71
2023/01/12 05:00:42;;;;;;;;;;;13.60;99.90;;;;;;5042866;28;19917;-72
2023/01/12 05:03:10;;;;;;;;;;;13.70;99.90;;;;;;5037177;28;19913;-74
2023/01/12 05:05:35;;;;;;;;;;;13.70;99.90;;;;;;5040835;28;19917;-70
2023/01/12 05:10:53;;;;;;;;;;;13.70;99.90;;;;;;5046596;28;20051;-72
2023/01/12 05:13:19;;;;;;;;;;;13.90;99.90;;;;;;5046164;28;20456;-69
2023/01/12 05:15:44;;;;;;;;;;;13.90;99.90;;;;;;5048125;28;19912;-72
2023/01/12 05:18:10;;;;;;;;;;;14.00;99.90;;;;;;5040097;28;20358;-71
2023/01/12 05:20:35;;;;;;;;;;;14.10;99.90;;;;;;5041621;28;19940;-70
2023/01/12 05:23:01;;;;;;;;;;;14.10;99.90;;;;;;5042482;28;19909;-74
2023/01/12 05:25:28;;;;;;;;;;;14.20;99.90;;;;;;5046784;28;19952;-74
2023/01/12 05:27:53;;;;;;;;;;;14.20;99.90;;;;;;5041019;28;19916;-71
2023/01/12 05:30:19;;;;;;;;;;;14.30;99.90;;;;;;5042168;28;19913;-72
2023/01/12 05:32:44;;;;;;;;;;;14.60;99.90;;;;;;5040309;28;19936;-71
2023/01/12 05:35:10;;;;;;;;;;;14.70;99.90;;;;;;5046059;28;20342;-73
2023/01/12 05:37:35;;;;;;;;;;;14.60;99.90;;;;;;5044213;28;19967;-72
2023/01/12 05:40:01;;;;;;;;;;;14.80;99.90;;;;;;5041777;28;20137;-72
2023/01/12 05:45:10;;;;;;;;;;;14.80;99.90;;;;;;5040010;28;20008;-69
2023/01/12 05:47:36;;;;;;;;;;;15.10;99.90;;;;;;5042813;28;19999;-72
2023/01/12 05:50:02;;;;;;;;;;;15.20;99.90;;;;;;5047276;28;19974;-71
2023/01/12 05:52:27;;;;;;;;;;;15.40;99.90;;;;;;5042057;28;19947;-70
2023/01/12 05:54:53;;;;;;;;;;;15.50;99.90;;;;;;5042921;28;20449;-69
2023/01/12 05:57:18;;;;;;;;;;;15.40;99.90;;;;;;5042745;28;20080;-71
2023/01/12 05:59:43;;;;;;;;;;;15.70;99.90;;;;;;5039496;28;20071;-72
2023/01/12 06:02:12;;;;;;;;;;;15.70;99.90;;;;;;5042007;28;19917;-71
2023/01/12 06:04:38;;;;;;;;;;;15.90;99.90;;;;;;5043491;28;19917;-70
2023/01/12 06:07:04;;;;;;;;;;;15.90;99.90;;;;;;5040771;28;19913;-72
2023/01/12 06:09:29;;;;;;;;;;;16.10;99.90;;;;;;5039161;28;19944;-70
2023/01/12 06:14:38;;;;;;;;;;;16.10;99.90;;;;;;5036790;28;20328;-71
2023/01/12 06:17:04;;;;;;;;;;;16.40;99.90;;;;;;5039177;28;19925;-70
2023/01/12 06:19:29;;;;;;;;;;;16.30;99.90;;;;;;5041429;28;19944;-71
2023/01/12 06:21:58;;;;;;;;;;;16.50;99.90;;;;;;5045910;28;19913;-69
2023/01/12 06:24:24;;;;;;;;;;;16.70;99.90;;;;;;5042511;28;20325;-72
2023/01/12 06:26:49;;;;;;;;;;;16.70;99.90;;;;;;5040981;28;20019;-72
2023/01/12 06:29:15;;;;;;;;;;;16.80;99.90;;;;;;5039168;28;20439;-71
2023/01/12 06:31:40;;;;;;;;;;;16.80;99.90;;;;;;5034016;28;19931;-72
2023/01/12 06:34:09;;;;;;;;;;;16.90;99.90;;;;;;5038523;28;19912;-73
2023/01/12 06:36:34;;;;;;;;;;;16.90;99.90;;;;;;5037463;28;20381;-73
2023/01/12 06:39:01;;;;;;;;;;;16.90;99.90;;;;;;5041720;28;19909;-69
2023/01/12 06:44:10;;;;;;;;;;;17.00;99.90;;;;;;5037002;28;19950;-71
2023/01/12 06:46:36;;;;;;;;;;;17.20;99.90;;;;;;5045574;28;20410;-71
2023/01/12 06:49:01;;;;;;;;;;;17.20;99.90;;;;;;5041717;28;20446;-70
2023/01/12 06:51:27;;;;;;;;;;;17.00;99.90;;;;;;5041443;28;20533;-72
2023/01/12 06:53:52;;;;;;;;;;;17.10;99.90;;;;;;5043762;28;19943;-71
2023/01/12 06:56:18;;;;;;;;;;;17.30;99.90;;;;;;5049215;28;20152;-72
2023/01/12 06:58:46;;;;;;;;;;;17.20;99.90;;;;;;5049762;28;21261;-73
2023/01/12 07:01:15;;;;;;;;;;;17.30;99.90;;;;;;5041949;28;19919;-71
2023/01/12 07:03:41;;;;;;;;;;;17.40;99.90;;;;;;5042615;28;19966;-72
2023/01/12 07:06:06;;;;;;;;;;;17.50;99.90;;;;;;5045637;28;19916;-71
2023/01/12 07:08:32;;;;;;;;;;;17.40;99.90;;;;;;5047765;28;19916;-71
2023/01/12 07:11:02;;;;;;;;;;;17.70;99.90;;;;;;5045860;28;19917;-73
2023/01/12 07:13:28;;;;;;;;;;;17.50;99.90;;;;;;5040087;28;20000;-72
2023/01/12 07:15:56;;;;;;;;;;;17.60;99.90;;;;;;5037748;28;19913;-73
2023/01/12 07:18:21;;;;;;;;;;;17.70;99.90;;;;;;5032459;28;19943;-72
2023/01/12 07:20:47;;;;;;;;;;;17.60;99.90;;;;;;5039896;28;20436;-70
2023/01/12 07:23:13;;;;;;;;;;;17.70;99.90;;;;;;5034853;28;20345;-71
2023/01/12 07:25:38;;;;;;;;;;;17.70;99.90;;;;;;5042441;28;19919;-72
2023/01/12 07:28:04;;;;;;;;;;;17.70;99.90;;;;;;5038894;28;19916;-71
2023/01/12 07:30:29;;;;;;;;;;;17.70;99.90;;;;;;5029603;28;19913;-69
2023/01/12 07:32:54;;;;;;;;;;;17.60;99.90;;;;;;5034655;28;19928;-71
2023/01/12 07:35:20;;;;;;;;;;;17.70;99.90;;;;;;5035844;28;19916;-72
2023/01/12 07:37:50;;;;;;;;;;;17.80;99.90;;;;;;5042275;28;20652;-73
2023/01/12 07:40:16;;;;;;;;;;;17.80;99.90;;;;;;5038439;28;20371;-72
2023/01/12 07:42:41;;;;;;;;;;;17.60;99.90;;;;;;5041327;28;19920;-71
2023/01/12 07:45:07;;;;;;;;;;;17.60;99.90;;;;;;5038633;28;20376;-73
2023/01/12 07:47:32;;;;;;;;;;;17.90;99.90;;;;;;5042568;28;19921;-73
2023/01/12 07:49:58;;;;;;;;;;;17.80;99.90;;;;;;5046394;28;19909;-71
2023/01/12 07:52:23;;;;;;;;;;;17.80;99.90;;;;;;5041296;28;19908;-74
2023/01/12 07:54:49;;;;;;;;;;;17.50;99.90;;;;;;5040009;28;19916;-71
2023/01/12 07:57:14;;;;;;;;;;;17.70;99.90;;;;;;5044093;28;19913;-72
2023/01/12 07:59:40;;;;;;;;;;;17.60;99.90;;;;;;5033937;28;19920;-71
2023/01/12 08:02:05;;;;;;;;;;;17.30;99.90;;;;;;5035143;28;19913;-73
2023/01/12 08:04:31;;;;;;;;;;;17.40;99.90;;;;;;5040846;28;19913;-71
2023/01/12 08:06:56;;;;;;;;;;;17.40;99.90;;;;;;5036307;28;19909;-74
2023/01/12 08:09:22;;;;;;;;;;;17.20;99.90;;;;;;5031530;28;19917;-74
2023/01/12 08:11:47;;;;;;;;;;;17.10;99.90;;;;;;5045579;28;19913;-73
2023/01/12 08:14:22;;;;;;;;;;;17.30;99.90;;;;;;5039341;28;20358;-70
2023/01/12 08:16:48;;;;;;;;;;;17.10;99.90;;;;;;5040659;28;19974;-72
2023/01/12 08:19:19;;;;;;;;;;;17.00;99.90;;;;;;5028672;28;20006;-73
2023/01/12 08:21:48;;;;;;;;;;;17.00;99.90;;;;;;5038434;28;19909;-72
2023/01/12 08:24:15;;;;;;;;;;;17.10;99.90;;;;;;5041711;28;19920;-72
2023/01/12 08:26:42;;;;;;;;;;;17.10;99.90;;;;;;5031016;28;19909;-72
2023/01/12 08:29:12;;;;;;;;;;;17.10;99.90;;;;;;5029675;28;19920;-73
2023/01/12 08:31:38;;;;;;;;;;;17.20;99.90;;;;;;5038942;28;19909;-72
2023/01/12 08:34:04;;;;;;;;;;;17.20;99.90;;;;;;5040253;28;19916;-74
2023/01/12 08:36:31;;;;;;;;;;;17.00;99.90;;;;;;5038153;28;19909;-74
2023/01/12 08:38:56;;;;;;;;;;;17.00;99.90;;;;;;5039251;28;19913;-74
2023/01/12 08:41:31;;;;;;;;;;;17.10;99.90;;;;;;5038411;28;19921;-74
2023/01/12 08:44:04;;;;;;;;;;;17.20;99.90;;;;;;5036282;28;20505;-74
2023/01/12 08:46:34;;;;;;;;;;;17.30;99.90;;;;;;5034390;28;19959;-74
2023/01/12 08:49:00;;;;;;;;;;;17.10;99.90;;;;;;5033496;28;19913;-72
2023/01/12 08:51:26;;;;;;;;;;;17.40;99.90;;;;;;5034379;28;19977;-73
2023/01/12 08:53:51;;;;;;;;;;;17.40;99.90;;;;;;5038197;28;19916;-72
2023/01/12 08:56:17;;;;;;;;;;;17.20;99.90;;;;;;5033102;28;19917;-73
2023/01/12 08:58:42;;;;;;;;;;;17.10;99.90;;;;;;5035227;28;19916;-74
2023/01/12 09:01:12;;;;;;;;;;;17.30;99.90;;;;;;5032879;28;19910;-73
2023/01/12 09:03:38;;;;;;;;;;;17.40;99.90;;;;;;5044034;28;19935;-73
2023/01/12 09:06:07;;;;;;;;;;;17.30;99.90;;;;;;5035832;28;19978;-74
2023/01/12 09:08:32;;;;;;;;;;;17.30;99.90;;;;;;5041440;28;20569;-73
2023/01/12 09:11:02;;;;;;;;;;;17.50;99.90;;;;;;5032158;28;19999;-73
2023/01/12 09:13:28;;;;;;;;;;;17.60;99.90;;;;;;5037339;28;20406;-71
2023/01/12 09:15:53;;;;;;;;;;;17.60;99.90;;;;;;5041930;28;20003;-73
2023/01/12 09:18:18;;;;;;;;;;;17.80;99.90;;;;;;5038758;28;20616;-73
2023/01/12 09:20:44;;;;;;;;;;;17.70;99.90;;;;;;5036322;28;20474;-70
2023/01/12 09:23:09;;;;;;;;;;;17.60;99.90;;;;;;5034942;28;19913;-73
2023/01/12 09:25:35;;;;;;;;;;;18.00;99.90;;;;;;5033635;28;19935;-74
2023/01/12 09:28:00;;;;;;;;;;;17.70;99.90;;;;;;5025763;28;20007;-72
2023/01/12 09:30:26;;;;;;;;;;;17.70;99.90;;;;;;5036140;28;19944;-74
2023/01/12 09:32:53;;;;;;;;;;;18.10;99.90;;;;;;5040834;28;20055;-74
2023/01/12 09:35:20;;;;;;;;;;;18.10;99.90;;;;;;5034728;28;20300;-74
2023/01/12 09:37:46;;;;;;;;;;;18.10;99.90;;;;;;5036124;28;19990;-73
2023/01/12 09:40:15;;;;;;;;;;;18.10;99.90;;;;;;5034373;28;19956;-73
2023/01/12 09:48:17;;;;;;;;;;;18.20;99.90;;;;;;5035089;28;20009;-73
2023/01/12 09:50:51;;;;;;;;;;;18.10;99.90;;;;;;5033536;28;19925;-70
2023/01/12 09:53:36;;;;;;;;;;;18.20;99.90;;;;;;5042729;28;20526;-72
2023/01/12 09:56:07;;;;;;;;;;;18.00;99.90;;;;;;5046663;28;19909;-69
2023/01/12 09:58:32;;;;;;;;;;;18.00;99.90;;;;;;5038461;28;20047;-74
2023/01/12 10:00:59;;;;;;;;;;;18.40;99.90;;;;;;5044146;28;20345;-73
2023/01/12 10:03:28;;;;;;;;;;;18.40;99.90;;;;;;5041292;28;19909;-72
2023/01/12 10:05:56;;;;;;;;;;;18.50;99.90;;;;;;5041845;28;19921;-73
2023/01/12 10:08:33;;;;;;;;;;;18.50;99.90;;;;;;5030318;28;19909;-75
2023/01/12 10:11:02;;;;;;;;;;;18.30;99.90;;;;;;5045458;28;19909;-74
2023/01/12 10:13:42;;;;;;;;;;;18.50;99.90;;;;;;5040453;28;20427;-73
2023/01/12 10:16:13;;;;;;;;;;;18.30;99.90;;;;;;5044773;28;19908;-72
2023/01/12 10:18:41;;;;;;;;;;;18.40;99.90;;;;;;5033504;28;20012;-73
2023/01/12 10:21:10;;;;;;;;;;;18.70;99.90;;;;;;5041164;28;19963;-72
2023/01/12 10:23:35;;;;;;;;;;;18.50;99.90;;;;;;5039630;28;19947;-71
2023/01/12 10:26:18;;;;;;;;;;;18.40;99.90;;;;;;5045893;28;20537;-69
2023/01/12 10:28:45;;;;;;;;;;;18.80;99.90;;;;;;5037587;28;19912;-72
2023/01/12 10:31:29;;;;;;;;;;;18.80;99.90;;;;;;5046091;28;20267;-73
2023/01/12 10:34:00;;;;;;;;;;;18.90;99.90;;;;;;5038335;28;19924;-73
2023/01/12 10:36:26;;;;;;;;;;;18.50;99.90;;;;;;5042589;28;19916;-71
2023/01/12 10:39:02;;;;;;;;;;;18.80;99.90;;;;;;5042499;28;19912;-71
2023/01/12 10:41:36;;;;;;;;;;;18.60;99.90;;;;;;5043908;28;20127;-73
2023/01/12 10:44:02;;;;;;;;;;;18.70;99.90;;;;;;5045663;28;20295;-72
2023/01/12 10:46:31;;;;;;;;;;;19.00;99.90;;;;;;5046026;28;19905;-71
2023/01/12 10:49:12;;;;;;;;;;;18.90;99.90;;;;;;5042090;28;19995;-72
2023/01/12 10:51:47;;;;;;;;;;;18.80;99.90;;;;;;5037147;28;19913;-71
2023/01/12 10:54:17;;;;;;;;;;;19.10;99.90;;;;;;5038289;28;19978;-74
2023/01/12 10:56:52;;;;;;;;;;;18.80;99.90;;;;;;5045082;28;20371;-75
2023/01/12 10:59:20;;;;;;;;;;;19.10;99.90;;;;;;5035784;28;19948;-74
2023/01/12 11:01:50;;;;;;;;;;;19.20;99.90;;;;;;5039336;28;19913;-72
2023/01/12 11:04:21;;;;;;;;;;;18.80;99.90;;;;;;5040658;28;20454;-71
2023/01/12 11:06:58;;;;;;;;;;;19.20;99.90;;;;;;5041745;28;20046;-74
2023/01/12 11:09:25;;;;;;;;;;;19.00;99.90;;;;;;5049562;28;19962;-72
2023/01/12 11:12:01;;;;;;;;;;;19.00;99.90;;;;;;5051992;28;20013;-72
2023/01/12 11:14:36;;;;;;;;;;;19.20;99.90;;;;;;5051164;28;20020;-72
2023/01/12 11:17:21;;;;;;;;;;;19.10;99.90;;;;;;5033868;28;19924;-72
2023/01/12 11:19:48;;;;;;;;;;;19.20;99.90;;;;;;5041439;28;19938;-72
2023/01/12 11:22:19;;;;;;;;;;;19.20;99.90;;;;;;5044833;28;19909;-72
2023/01/12 11:24:48;;;;;;;;;;;19.20;99.90;;;;;;5054926;28;20000;-73
2023/01/12 11:27:17;;;;;;;;;;;19.30;99.90;;;;;;5041546;28;19909;-72
2023/01/12 11:29:47;;;;;;;;;;;19.40;99.90;;;;;;5039993;28;19921;-73
2023/01/12 11:32:16;;;;;;;;;;;19.20;99.90;;;;;;5043462;28;19996;-74
2023/01/12 11:34:50;;;;;;;;;;;19.20;99.90;;;;;;5046129;28;19919;-71
2023/01/12 11:37:17;;;;;;;;;;;19.20;99.90;;;;;;5050451;28;19919;-71
2023/01/12 11:39:44;;;;;;;;;;;19.50;99.90;;;;;;5046545;28;19913;-71
2023/01/12 11:45:10;;;;;;;;;;;19.50;99.90;;;;;;5047555;28;19996;-72
2023/01/12 11:47:37;;;;;;;;;;;19.30;99.90;;;;;;5036709;28;20314;-73
2023/01/12 11:50:06;;;;;;;;;;;19.30;99.90;;;;;;5037696;28;19956;-73
2023/01/12 11:52:31;;;;;;;;;;;19.40;99.90;;;;;;5032837;28;20599;-72
2023/01/12 11:54:57;;;;;;;;;;;19.50;99.90;;;;;;5031956;28;20449;-74
2023/01/12 11:57:34;;;;;;;;;;;19.30;99.90;;;;;;5039165;28;20385;-72
2023/01/12 12:00:08;;;;;;;;;;;19.40;99.90;;;;;;5036101;28;19921;-72
2023/01/12 12:02:38;;;;;;;;;;;19.40;99.90;;;;;;5033919;28;19940;-73
2023/01/12 12:05:18;;;;;;;;;;;19.50;99.90;;;;;;5039285;28;19917;-71
2023/01/12 12:07:53;;;;;;;;;;;19.40;99.90;;;;;;5032859;28;20540;-73
2023/01/12 12:10:22;;;;;;;;;;;19.20;99.90;;;;;;5037390;28;20291;-72
2023/01/12 12:13:06;;;;;;;;;;;19.10;99.90;;;;;;5037746;28;19923;-71
2023/01/12 12:15:44;;;;;;;;;;;19.20;99.90;;;;;;5031674;28;19975;-71
2023/01/12 12:18:12;;;;;;;;;;;19.10;99.90;;;;;;5037497;28;19938;-73
2023/01/12 12:20:55;;;;;;;;;;;19.10;99.90;;;;;;5039077;28;19913;-72
2023/01/12 12:23:20;;;;;;;;;;;19.00;99.90;;;;;;5039934;28;19913;-72
2023/01/12 12:25:45;;;;;;;;;;;19.20;99.90;;;;;;5040895;28;19971;-71
2023/01/12 12:28:20;;;;;;;;;;;19.20;99.90;;;;;;5032763;28;19967;-71
2023/01/12 12:30:52;;;;;;;;;;;19.10;99.90;;;;;;5035872;28;19917;-74
2023/01/12 12:33:27;;;;;;;;;;;19.20;99.90;;;;;;5037984;28;20019;-72
2023/01/12 12:36:11;;;;;;;;;;;19.20;99.90;;;;;;5040467;28;19920;-71
2023/01/12 12:38:43;;;;;;;;;;;19.20;99.90;;;;;;5038419;28;20284;-71
2023/01/12 12:47:30;;;;;;;;;;;18.80;99.90;;;;;;5036883;28;19939;-70
2023/01/12 12:49:57;;;;;;;;;;;18.80;99.90;;;;;;5039791;28;19914;-74
2023/01/12 12:52:23;;;;;;;;;;;18.80;99.90;;;;;;5040636;28;20609;-73
2023/01/12 12:54:50;;;;;;;;;;;18.90;99.90;;;;;;5037152;28;19924;-74
2023/01/12 12:57:17;;;;;;;;;;;18.80;99.90;;;;;;5041243;28;20464;-75
2023/01/12 12:59:55;;;;;;;;;;;18.90;99.90;;;;;;5041073;28;20410;-75
2023/01/12 13:02:38;;;;;;;;;;;18.70;99.90;;;;;;5041236;28;19959;-73
2023/01/12 13:05:04;;;;;;;;;;;18.90;99.90;;;;;;5038687;28;19923;-75
2023/01/12 13:07:32;;;;;;;;;;;18.80;99.90;;;;;;5042194;28;19913;-72
2023/01/12 13:10:19;;;;;;;;;;;18.70;99.90;;;;;;5040570;28;19997;-74
2023/01/12 13:12:54;;;;;;;;;;;18.80;99.90;;;;;;5039452;28;20015;-73
2023/01/12 13:15:21;;;;;;;;;;;18.80;99.90;;;;;;5041247;28;19948;-73
2023/01/12 13:17:48;;;;;;;;;;;18.50;99.90;;;;;;5040176;28;20391;-73
2023/01/12 13:20:13;;;;;;;;;;;18.70;99.90;;;;;;5044911;28;19917;-73
2023/01/12 13:22:38;;;;;;;;;;;18.60;99.90;;;;;;5040548;28;19986;-75
2023/01/12 13:25:19;;;;;;;;;;;18.80;99.90;;;;;;5043310;28;20600;-75
2023/01/12 13:27:46;;;;;;;;;;;18.70;99.90;;;;;;5041031;28;19940;-76
2023/01/12 13:30:26;;;;;;;;;;;18.60;99.90;;;;;;5041837;28;19970;-71
2023/01/12 13:32:52;;;;;;;;;;;18.70;99.90;;;;;;5044530;28;20008;-76
2023/01/12 13:35:22;;;;;;;;;;;18.40;99.90;;;;;;5047874;28;20316;-74
2023/01/12 13:37:50;;;;;;;;;;;18.60;99.90;;;;;;5045021;28;19920;-73
2023/01/12 13:40:18;;;;;;;;;;;18.50;99.90;;;;;;5045653;28;19970;-75
2023/01/12 13:45:29;;;;;;;;;;;18.60;99.90;;;;;;5048918;28;19973;-79
2023/01/12 13:47:55;;;;;;;;;;;18.40;99.90;;;;;;5045366;28;19917;-75
2023/01/12 13:50:22;;;;;;;;;;;18.30;99.90;;;;;;5040965;28;19913;-75
2023/01/12 13:52:58;;;;;;;;;;;18.30;99.90;;;;;;5044632;28;19913;-75
2023/01/12 13:55:26;;;;;;;;;;;18.30;99.90;;;;;;5042536;28;19909;-73
2023/01/12 13:57:59;;;;;;;;;;;18.30;99.90;;;;;;5034636;28;19921;-74
2023/01/12 14:00:25;;;;;;;;;;;18.30;99.90;;;;;;5044437;28;19996;-74
2023/01/12 14:02:50;;;;;;;;;;;18.40;99.90;;;;;;5044131;28;19948;-73
2023/01/12 14:05:16;;;;;;;;;;;18.10;99.90;;;;;;5047792;28;19925;-72
2023/01/12 14:07:51;;;;;;;;;;;18.20;99.90;;;;;;5050638;28;19910;-77
2023/01/12 14:10:35;;;;;;;;;;;18.20;99.90;;;;;;5043320;28;19931;-75
2023/01/12 14:13:19;;;;;;;;;;;18.00;99.90;;;;;;5050154;28;19912;-74
2023/01/12 14:18:42;;;;;;;;;;;18.30;99.90;;;;;;5055550;28;19919;-76
2023/01/12 14:21:20;;;;;;;;;;;18.30;99.90;;;;;;5044101;28;19917;-75
2023/01/12 14:23:45;;;;;;;;;;;18.20;99.90;;;;;;5044780;28;20008;-76
2023/01/12 14:26:12;;;;;;;;;;;17.90;99.90;;;;;;5034452;28;20051;-73
2023/01/12 14:28:41;;;;;;;;;;;18.10;99.90;;;;;;5044407;28;19913;-74
2023/01/12 14:31:14;;;;;;;;;;;17.90;99.90;;;;;;5044548;28;20056;-74
2023/01/12 14:33:46;;;;;;;;;;;17.90;99.90;;;;;;5035806;28;19916;-74
2023/01/12 14:36:14;;;;;;;;;;;17.80;99.90;;;;;;5044735;28;19909;-73
2023/01/12 14:38:40;;;;;;;;;;;18.00;99.90;;;;;;5040641;28;19917;-72
2023/01/12 14:46:23;;;;;;;;;;;17.80;99.90;;;;;;5043766;28;20075;-72
2023/01/12 14:46:46;;;;;;;;;;;18.10;99.90;;;;;;5035729;28;20004;-76
2023/01/12 14:49:19;;;;;;;;;;;17.90;99.90;;;;;;5037203;28;19913;-73
2023/01/12 14:51:58;;;;;;;;;;;17.80;99.90;;;;;;5043470;28;19916;-72
2023/01/12 14:54:30;;;;;;;;;;;17.90;99.90;;;;;;5045316;28;19963;-72
2023/01/12 14:56:58;;;;;;;;;;;17.80;99.90;;;;;;5033117;28;19916;-73
2023/01/12 14:59:27;;;;;;;;;;;18.00;99.90;;;;;;5034341;28;19979;-74
2023/01/12 15:02:06;;;;;;;;;;;18.00;99.90;;;;;;5035116;28;19964;-70
2023/01/12 15:04:31;;;;;;;;;;;17.80;99.90;;;;;;5030632;28;19920;-73
2023/01/12 15:07:01;;;;;;;;;;;18.10;99.90;;;;;;5042474;28;19997;-72
2023/01/12 15:09:29;;;;;;;;;;;18.00;99.90;;;;;;5045300;28;20019;-72
2023/01/12 15:11:54;;;;;;;;;;;18.10;99.90;;;;;;5046730;28;19917;-72
2023/01/12 15:14:23;;;;;;;;;;;17.90;99.90;;;;;;5041401;28;19909;-74
2023/01/12 15:27:54;;;;;;;;;;;18.20;99.90;;;;;;5042287;28;19943;-71
2023/01/12 15:30:19;;;;;;;;;;;18.40;99.90;;;;;;5047245;28;19917;-73